Main page
METAR-TAF:

METAR-TAF

Airports :

Vientiane, Laos

Wattay International Airport

latitude: 17-57N, longitude: 102-34E, elevation: 171 m

Current weather observation

The report was made 21 minutes ago, at 11:30 UTC
Wind 2 kt from the East
Temperature 28°C
Humidity 66%
Pressure 1010 hPa
Visibility: 5000 m
Few clouds at a height of 2000 ft
Scattered clouds at a height of 5000 ft
mist

METAR: VLVT 201130Z 09002KT 5000 BR FEW020 SCT050 28/21 Q1010 NOSIG

Time: 18:51 (11:51 UTC)

Forecast

The report was made 51 minutes ago, at 11:00 UTC
Forecast valid from 20 at 12 UTC to 21 at 12 UTC
Wind 4 kt from the East/Northeast
Visibility 10 km or more
Scattered clouds at a height of 2000 ft
Few clouds at a height of 20000 ft
Temporary
from 20 at 14 UTC to 20 at 20 UTC
Visibility: 4000 m
Few clouds at a height of 5000 ft
Few clouds at a height of 20000 ft
mist

TAF: VLVT 201100Z 2012/2112 06004KT 9999 SCT020 FEW200 TEMPO 2014/2020 4000 BR FEW050 FEW200

Weather observations and forecasts of more than 4000 airports (METAR and TAF reports).

The available stations are represented by yellow and red dots on the map.

Hover mouse over dot to see the name of the station.

Then click to see weather observations and forecasts.

To change the map : click on the green buttons with a black cross to zoom in, on the green button with a dash to zoom out, or on the green arrows for adjacent maps.


METAR-TAF: